Terminal Aerodrome Forecast
Issued by NWS Charleston, WV

Current Version | Previous Version | Graphics & Text | Print | Product List | Glossary On
Versions: 1 2 3 4 5 6 7 8 9 10 11 12 13 14 15 16 17 18 19 20 21 22 23 24 25
467
FTUS41 KRLX 220859 AAA
TAFBKW
TAF AMD
KBKW 220859Z 2209/2306 14009KT P6SM OVC080
     FM221400 16008KT P6SM SCT250
     FM221700 16010G18KT P6SM SCT250
     FM222100 17011KT P6SM BKN100
     FM230100 16013G24KT P6SM OVC060
     FM230300 16015G27KT P6SM OVC025
     FM230500 17015G28KT 4SM -SHRA OVC020 WS005/18020KT=

USA.gov is the U.S. government's official web portal to all federal, state and local government web resources and services.